Portada
METAR-TAF:

METAR-TAF

Aeroports :

Bangui, República Centreafricana

latitud: 04-24N, longitud: 018-31E, altitud: 365 m

Observació

L'informe es va fer fa 26 minuts, a les 11:00 UTC
Vent 6 kt del Est/Sud-Est
Temperatura 28°C
Humitat 70%
Pressió 1012 hPa
Visibilitat 10 km o més
Núvols disperses a una alçada de 1600 ft

METAR: FEFF 091100Z 11006KT 9999 SCT016 28/22 Q1012 NOSIG

Hora: 12:26 (11:26 UTC)

Pronòstic

L'informe es va fer fa 6 hores i 26 minuts, a les 05:00 UTC
Pronòstic vàlid del 09 a les 06 UTC al 09 a les 12 UTC
Vent 8 kt del Oest/Sud-Oest
Visibilitat 10 km o més
sense núvols per sota de 1500 mi sense presència de cumulonimbus.
Probabilitat 30% :
Temporalment
l' 09 a les 17 UTC al 09 a les 22 UTC
Vent 20 kt amb direcció variable
Visibilitat: 4000 m
Cel ennuvolat a una alçada de 1300 ft
Escasses núvols a una alçada de 4000 ft, Cumulonimbus.
tempesta, pluja

TAF: FEFF 090500Z 0906/0912 24008KT CAVOK PROB30 TEMPO 0917/0922 VRB20KT 4000 TSRA BKN013 FEW040CB

Observacions i pronòstics meteorològics de més de 4000 aeroports (METAR i TAF).

Les estacions disponibles són els punts grocs i vermells al mapa.

Posi el ratolí al punt desitjat per veure el nom de l'estació.

Feu clic per veure les observacions i els pronòstics meteorològics.

Per canviar el mapa: feu clic els botons verds amb una creu de color negre per apropar; al botó verd amb un guió per allunyar la imatge; o en les fletxes verdes per a mapes adjacents.


METAR-TAF: